createdAt,value
2018-01-01T00:00:25.391Z,96833.77
2018-01-01T00:02:59.595Z,96835.00
2018-01-01T00:05:31.328Z,96826.64
2018-01-01T00:08:05.798Z,96822.57
2018-01-01T00:10:41.462Z,96820.23
2018-01-01T00:13:12.885Z,96821.77
2018-01-01T00:15:48.069Z,96819.20
2018-01-01T00:18:30.782Z,96813.54
2018-01-01T00:21:07.663Z,96812.39
2018-01-01T00:23:38.739Z,96813.45
2018-01-01T00:26:25.352Z,96810.67
2018-01-01T00:29:07.590Z,96809.14
2018-01-01T00:31:39.542Z,96805.63
2018-01-01T00:34:11.759Z,96805.43
2018-01-01T00:36:42.601Z,96805.28
2018-01-01T00:39:20.862Z,96798.46
2018-01-01T00:41:53.637Z,96792.43
2018-01-01T00:44:26.516Z,96795.92
2018-01-01T00:46:58.035Z,96790.65
2018-01-01T00:49:33.131Z,96779.75
2018-01-01T00:52:10.409Z,96781.61
2018-01-01T00:54:53.772Z,96783.01
2018-01-01T00:57:28.314Z,96775.78
2018-01-01T01:00:06.785Z,96768.69
2018-01-01T01:02:42.053Z,96771.73
2018-01-01T01:05:19.099Z,96767.72
2018-01-01T01:07:57.310Z,96764.13
2018-01-01T01:10:45.541Z,96770.17
2018-01-01T01:13:22.651Z,96761.90
2018-01-01T01:15:53.384Z,96766.30
2018-01-01T01:18:33.529Z,96762.64
2018-01-01T01:24:10.554Z,96769.55
2018-01-01T01:26:41.722Z,96753.45
2018-01-01T01:29:13.665Z,96761.05
2018-01-01T01:35:17.544Z,96758.28
2018-01-01T01:37:55.048Z,96743.02
2018-01-01T01:40:28.954Z,96743.22
2018-01-01T01:43:02.639Z,96731.05
2018-01-01T01:45:36.923Z,96726.55
2018-01-01T01:48:12.988Z,96727.30
2018-01-01T01:50:52.718Z,96731.06
2018-01-01T01:53:30.916Z,96712.22
2018-01-01T01:56:18.706Z,96699.71
2018-01-01T02:01:40.605Z,96702.06
2018-01-01T02:04:16.338Z,96698.74
2018-01-01T02:06:50.002Z,96704.66
2018-01-01T02:10:02.537Z,96706.87
2018-01-01T02:12:38.630Z,96711.33
2018-01-01T02:15:10.290Z,96699.19
2018-01-01T02:17:40.919Z,96701.76
2018-01-01T02:20:20.646Z,96695.16
2018-01-01T02:22:56.050Z,96695.84
2018-01-01T02:25:27.057Z,96687.80
2018-01-01T02:28:00.136Z,96685.59
2018-01-01T02:30:31.635Z,96682.34
2018-01-01T02:33:05.617Z,96671.69
2018-01-01T02:39:34.866Z,96671.74
2018-01-01T02:42:28.866Z,96669.86
2018-01-01T02:45:01.608Z,96674.78
2018-01-01T02:47:33.539Z,96665.20
2018-01-01T02:50:20.533Z,96667.56
2018-01-01T02:52:57.593Z,96665.81
2018-01-01T02:55:32.051Z,96664.69
2018-01-01T03:01:05.553Z,96669.64
2018-01-01T03:03:44.487Z,96667.86
2018-01-01T03:06:17.274Z,96664.42
2018-01-01T03:08:58.762Z,96657.85
2018-01-01T03:11:46.022Z,96655.08
2018-01-01T03:14:20.683Z,96652.80
2018-01-01T03:16:52.753Z,96658.28
2018-01-01T03:19:26.484Z,96656.39
2018-01-01T03:21:59.604Z,96658.05
2018-01-01T03:24:32.868Z,96658.22
2018-01-01T03:27:07.624Z,96656.25
2018-01-01T03:29:42.402Z,96662.83
2018-01-01T03:32:17.549Z,96656.05
2018-01-01T03:34:48.591Z,96656.75
2018-01-01T03:37:28.608Z,96656.88
2018-01-01T03:40:09.002Z,96652.84
2018-01-01T03:42:46.483Z,96644.81
2018-01-01T03:47:58.857Z,96646.80
2018-01-01T03:50:34.972Z,96638.20
2018-01-01T03:53:08.371Z,96643.93
2018-01-01T03:55:39.680Z,96647.71
2018-01-01T03:58:18.195Z,96649.80
2018-01-01T04:00:51.537Z,96645.63
2018-01-01T04:03:35.821Z,96656.36
2018-01-01T04:06:07.461Z,96660.22
2018-01-01T04:08:37.838Z,96653.10
2018-01-01T04:11:09.882Z,96643.92
2018-01-01T04:13:39.939Z,96642.52
2018-01-01T04:16:11.050Z,96652.37
2018-01-01T04:18:41.214Z,96660.71
2018-01-01T04:21:14.494Z,96651.02
2018-01-01T04:23:45.364Z,96637.88
2018-01-01T04:26:17.551Z,96647.13
2018-01-01T04:28:51.466Z,96643.28
2018-01-01T04:31:21.968Z,96651.02
2018-01-01T04:33:54.729Z,96655.80
2018-01-01T04:36:26.081Z,96652.64
2018-01-01T04:38:56.745Z,96655.62
2018-01-01T04:41:29.146Z,96650.48
2018-01-01T04:44:00.830Z,96665.36
2018-01-01T04:46:32.132Z,96654.99
2018-01-01T04:49:03.316Z,96652.08
2018-01-01T04:51:34.317Z,96643.74
2018-01-01T04:54:09.064Z,96644.54
2018-01-01T04:56:41.912Z,96653.16
2018-01-01T04:59:12.232Z,96649.84
2018-01-01T05:01:43.574Z,96652.48
2018-01-01T05:04:14.333Z,96660.25
2018-01-01T05:06:46.709Z,96661.39
2018-01-01T05:09:17.420Z,96670.95
2018-01-01T05:11:47.683Z,96661.48
2018-01-01T05:14:18.199Z,96662.44
2018-01-01T05:16:48.565Z,96681.51
2018-01-01T05:19:18.059Z,96668.55
2018-01-01T05:21:50.275Z,96671.52
2018-01-01T05:24:20.374Z,96668.71
2018-01-01T05:26:51.997Z,96679.97
2018-01-01T05:29:22.631Z,96675.12
2018-01-01T05:31:53.232Z,96677.36
2018-01-01T05:34:24.268Z,96673.15
2018-01-01T05:36:55.312Z,96689.34
2018-01-01T05:39:26.272Z,96694.40
2018-01-01T05:41:56.923Z,96687.73
2018-01-01T05:44:29.205Z,96688.81
2018-01-01T05:46:59.824Z,96698.95
2018-01-01T05:49:29.315Z,96702.73
2018-01-01T05:52:00.724Z,96698.93
2018-01-01T05:54:31.366Z,96700.22
2018-01-01T05:57:03.243Z,96701.05
2018-01-01T05:59:34.436Z,96690.09
2018-01-01T06:02:05.501Z,96699.27
2018-01-01T06:04:38.509Z,96699.97
2018-01-01T06:07:08.836Z,96694.70
2018-01-01T06:09:41.442Z,96694.47
2018-01-01T06:12:12.847Z,96698.86
2018-01-01T06:14:43.552Z,96718.20
2018-01-01T06:17:13.323Z,96730.86
2018-01-01T06:19:43.300Z,96732.72
2018-01-01T06:22:15.257Z,96743.30
2018-01-01T06:24:46.995Z,96740.89
2018-01-01T06:27:23.117Z,96744.45
2018-01-01T06:29:55.947Z,96750.42
2018-01-01T06:32:28.131Z,96744.70
2018-01-01T06:35:00.569Z,96739.13
2018-01-01T06:38:19.111Z,96746.33
2018-01-01T06:40:50.531Z,96761.45
2018-01-01T06:43:25.928Z,96762.30
2018-01-01T06:46:08.470Z,96774.12
2018-01-01T06:48:39.157Z,96774.17
2018-01-01T06:51:10.002Z,96769.95
2018-01-01T06:53:41.685Z,96779.52
2018-01-01T06:56:14.613Z,96784.95
2018-01-01T06:58:52.312Z,96794.17
2018-01-01T07:01:27.253Z,96797.08
2018-01-01T07:03:58.149Z,96805.91
2018-01-01T07:06:31.760Z,96815.11
2018-01-01T07:09:08.203Z,96820.27
2018-01-01T07:11:43.314Z,96818.78
2018-01-01T07:14:13.504Z,96820.77
2018-01-01T07:16:43.481Z,96835.36
2018-01-01T07:19:15.116Z,96835.72
2018-01-01T07:21:47.441Z,96826.41
2018-01-01T07:24:20.188Z,96826.62
2018-01-01T07:26:52.785Z,96830.59
2018-01-01T07:29:30.635Z,96833.97
2018-01-01T07:32:11.398Z,96835.05
2018-01-01T07:34:42.551Z,96833.81
2018-01-01T07:37:15.019Z,96844.66
2018-01-01T07:39:45.684Z,96846.33
2018-01-01T07:42:37.519Z,96851.37
2018-01-01T07:45:09.371Z,96851.42
2018-01-01T07:47:51.300Z,96856.67
2018-01-01T07:50:27.239Z,96848.58
2018-01-01T07:52:59.084Z,96838.75
2018-01-01T07:58:31.572Z,96844.89
2018-01-01T08:01:02.798Z,96843.84
2018-01-01T08:03:35.671Z,96858.27
2018-01-01T08:06:06.211Z,96873.64
2018-01-01T08:08:40.957Z,96873.95
2018-01-01T08:11:22.766Z,96872.67
2018-01-01T08:13:57.224Z,96875.05
2018-01-01T08:16:31.957Z,96878.16
2018-01-01T08:19:03.210Z,96883.47
2018-01-01T08:24:49.170Z,96884.16
2018-01-01T08:27:41.538Z,96890.25
2018-01-01T08:30:15.169Z,96886.11
2018-01-01T08:32:48.565Z,96874.81
2018-01-01T08:35:19.668Z,96882.24
2018-01-01T08:37:52.650Z,96883.95
2018-01-01T08:40:27.263Z,96879.25
2018-01-01T08:45:36.747Z,96874.14
2018-01-01T08:48:07.360Z,96882.30
2018-01-01T08:50:40.169Z,96890.82
2018-01-01T08:53:18.275Z,96881.63
2018-01-01T08:55:50.017Z,96879.55
2018-01-01T08:58:38.201Z,96875.39
2018-01-01T09:02:01.086Z,96871.50
2018-01-01T09:04:36.418Z,96871.52
2018-01-01T09:07:16.746Z,96869.52
2018-01-01T09:09:49.303Z,96875.62
2018-01-01T09:12:21.094Z,96885.86
2018-01-01T09:14:53.258Z,96883.58
2018-01-01T09:17:23.397Z,96891.39
2018-01-01T09:19:53.449Z,96887.03
2018-01-01T09:22:28.155Z,96893.87
2018-01-01T09:25:03.296Z,96891.83
2018-01-01T09:27:42.627Z,96890.42
2018-01-01T09:30:18.231Z,96892.77
2018-01-01T09:32:52.637Z,96898.69
2018-01-01T09:35:26.870Z,96905.14
2018-01-01T09:37:58.662Z,96904.13
2018-01-01T09:40:31.496Z,96908.23
2018-01-01T09:43:03.345Z,96904.97
2018-01-01T09:45:41.408Z,96895.32
2018-01-01T09:48:14.837Z,96902.64
2018-01-01T09:50:49.926Z,96912.69
2018-01-01T09:53:21.333Z,96904.66
2018-01-01T09:55:53.341Z,96910.44
2018-01-01T09:58:24.728Z,96920.72
2018-01-01T10:00:57.229Z,96919.09
2018-01-01T10:03:28.035Z,96919.64
2018-01-01T10:05:59.890Z,96926.33
2018-01-01T10:08:31.157Z,96919.15
2018-01-01T10:11:03.850Z,96925.92
2018-01-01T10:13:50.052Z,96927.48
2018-01-01T10:16:20.934Z,96926.08
2018-01-01T10:18:52.920Z,96924.14
2018-01-01T10:21:27.364Z,96929.53
2018-01-01T10:24:05.180Z,96931.88
2018-01-01T10:26:48.145Z,96937.45
2018-01-01T10:29:20.765Z,96922.59
2018-01-01T10:31:56.293Z,96930.70
2018-01-01T10:34:27.841Z,96930.88
2018-01-01T10:37:03.477Z,96929.03
2018-01-01T10:40:16.311Z,96934.30
2018-01-01T10:43:07.674Z,96944.69
2018-01-01T10:45:48.566Z,96950.66
2018-01-01T10:48:28.165Z,96958.20
2018-01-01T10:51:02.724Z,96956.75
2018-01-01T10:53:37.859Z,96952.66
2018-01-01T10:56:07.934Z,96947.89
2018-01-01T10:58:45.341Z,96949.41
2018-01-01T11:01:21.104Z,96959.16
2018-01-01T11:03:52.047Z,96962.06
2018-01-01T11:06:22.233Z,96971.25
2018-01-01T11:08:56.685Z,96985.30
2018-01-01T11:11:28.049Z,96978.93
2018-01-01T11:13:58.046Z,96968.86
2018-01-01T11:16:35.329Z,96964.91
2018-01-01T11:19:06.968Z,96961.36
2018-01-01T11:21:38.100Z,96969.73
2018-01-01T11:24:14.850Z,96975.67
2018-01-01T11:26:46.245Z,96982.90
2018-01-01T11:29:20.142Z,96978.41
2018-01-01T11:34:28.089Z,96975.22
2018-01-01T11:37:03.409Z,96969.20
2018-01-01T11:39:33.217Z,96967.02
2018-01-01T11:42:06.810Z,96968.52
2018-01-01T11:44:37.056Z,96969.42
2018-01-01T11:47:10.115Z,96968.47
2018-01-01T11:49:41.201Z,96969.94
2018-01-01T11:52:14.394Z,96964.16
2018-01-01T11:55:27.224Z,96968.21
2018-01-01T11:57:57.609Z,96968.61
2018-01-01T12:00:30.746Z,96954.16
2018-01-01T12:03:02.060Z,96951.27
2018-01-01T12:05:36.974Z,96954.02
2018-01-01T12:08:08.952Z,96954.34
2018-01-01T12:10:43.146Z,96939.59
2018-01-01T12:13:13.571Z,96944.79
2018-01-01T12:15:47.280Z,96943.30
2018-01-01T12:18:20.670Z,96936.63
2018-01-01T12:20:52.717Z,96936.20
2018-01-01T12:23:27.122Z,96933.55
2018-01-01T12:25:57.625Z,96931.44
2018-01-01T12:28:29.243Z,96927.39
2018-01-01T12:31:03.530Z,96929.80
2018-01-01T12:33:34.222Z,96923.20
2018-01-01T12:36:13.205Z,96925.62
2018-01-01T12:38:45.935Z,96919.25
2018-01-01T12:41:27.059Z,96919.27
2018-01-01T12:43:58.037Z,96919.07
2018-01-01T12:46:32.838Z,96906.91
2018-01-01T12:49:05.397Z,96898.37
2018-01-01T12:51:36.856Z,96893.29
2018-01-01T12:54:08.004Z,96899.54
2018-01-01T12:56:40.237Z,96902.84
2018-01-01T12:59:10.639Z,96902.50
2018-01-01T13:01:45.437Z,96899.94
2018-01-01T13:04:17.069Z,96896.77
2018-01-01T13:06:55.520Z,96894.97
2018-01-01T13:09:29.297Z,96902.12
2018-01-01T13:11:59.354Z,96907.75
2018-01-01T13:14:31.326Z,96907.06
2018-01-01T13:17:11.816Z,96903.94
2018-01-01T13:19:58.117Z,96903.69
2018-01-01T13:22:28.157Z,96899.56
2018-01-01T13:25:00.816Z,96898.83
2018-01-01T13:27:39.096Z,96898.84
2018-01-01T13:30:10.196Z,96898.83
2018-01-01T13:32:41.683Z,96895.45
2018-01-01T13:38:51.869Z,96911.55
2018-01-01T13:41:26.509Z,96907.14
2018-01-01T13:43:57.908Z,96914.50
2018-01-01T13:46:29.860Z,96915.48
2018-01-01T13:49:00.211Z,96911.78
2018-01-01T13:51:32.156Z,96910.79
2018-01-01T13:54:05.364Z,96901.91
2018-01-01T13:56:35.902Z,96880.72
2018-01-01T13:59:07.955Z,96872.44
2018-01-01T14:01:44.089Z,96862.75
2018-01-01T14:04:16.802Z,96863.47
2018-01-01T14:07:01.255Z,96868.33
2018-01-01T14:09:32.072Z,96873.19
2018-01-01T14:12:03.203Z,96881.48
2018-01-01T14:14:33.150Z,96870.58
2018-01-01T14:17:03.482Z,96877.31
2018-01-01T14:20:10.623Z,96867.78
2018-01-01T14:23:31.497Z,96863.04
